Latest Weather Observations for Grove

IDT60801

Issued at 4:02 pm EST Monday 21 August 2017 (issued every 30 minutes, with the page automatically refreshed every 10 minutes)

About weather observations | Map of weather stations | Latest weather observations for TAS | Other Formats
Station Details ID: 094220 Name: GROVE (RESEARCH STATION) Lat: -42.99 Lon: 147.07 Height: 65.0 m
Data from the previous 72 hours. | See also: Recent months at Grove
Date/Time
EST
Temp
°C
App
Temp
°C
Dew
Point
°C
Rel
Hum
%
Delta-T
°C
Wind Press
QNH
hPa
Press
MSL
hPa
Rain since
9am
mm
Dir  Spd
km/h
Gust
km/h
Spd
kts
Gust
kts
21/04:00pm 11.9 8.2 2.2 51 4.2 WSW 11 19 6 10 - - 0.0
21/03:30pm 11.8 8.9 1.7 50 4.3 SW 6 9 3 5 - - 0.0
21/03:00pm 11.9 9.1 2.2 51 4.2 SSW 6 7 3 4 - - 0.0
21/02:30pm 11.7 10.2 2.8 54 3.9 CALM 0 4 0 2 - - 0.0
21/02:00pm 12.0 9.3 2.9 53 4.0 ENE 6 9 3 5 - - 0.0
21/01:30pm 11.8 9.0 2.0 51 4.2 WSW 6 9 3 5 - - 0.0
21/01:00pm 10.5 9.0 2.9 59 3.3 CALM 0 0 0 0 - - 0.0
21/12:30pm 10.9 8.2 2.8 57 3.5 WSW 6 7 3 4 - - 0.0
21/12:00pm 9.2 6.5 2.9 65 2.7 SSW 6 9 3 5 - - 0.0
21/11:30am 8.8 6.3 3.5 69 2.3 S 6 9 3 5 - - 0.0
21/11:00am 8.8 7.0 3.2 68 2.4 N 2 6 1 3 - - 0.0
21/10:30am 7.2 5.8 3.7 78 1.5 CALM 0 2 0 1 - - 0.0
21/10:00am 5.4 3.9 3.2 86 0.9 CALM 0 0 0 0 - - 0.0
21/09:30am 4.7 2.9 3.2 90 0.6 S 2 7 1 4 - - 0.0
21/09:00am 3.3 0.5 3.1 99 0.1 NNE 7 9 4 5 - - 0.0
21/08:30am 0.9 -1.0 0.6 98 0.1 CALM 0 4 0 2 - - 0.0
21/08:00am -0.3 - - - - CALM 0 0 0 0 - - 0.0
21/07:30am -1.4 - - - - CALM 0 0 0 0 - - 0.0
21/07:00am -1.3 - - - - CALM 0 0 0 0 - - 0.0
21/06:30am -1.2 - - - - N 7 7 4 4 - - 0.0
21/06:00am -1.1 - - - - N 7 9 4 5 - - 0.0
21/05:30am -0.6 - - - - NE 7 11 4 6 - - 0.0
21/05:00am -0.5 - - - - NE 6 7 3 4 - - 0.0
21/04:30am -1.1 - - - - CALM 0 0 0 0 - - 0.0
21/04:00am -1.1 - - - - CALM 0 0 0 0 - - 0.0
21/03:30am -0.8 - - - - CALM 0 0 0 0 - - 0.0
21/03:00am -0.9 - - - - NE 2 6 1 3 - - 0.0
21/02:30am -0.5 - - - - NNE 6 6 3 3 - - 0.0
21/02:00am -0.3 - - - - NE 7 9 4 5 - - 0.0
21/01:30am 0.6 -1.7 0.3 98 0.1 NNE 2 7 1 4 - - 0.0
21/01:00am 0.4 -2.9 0.4 100 0.0 N 7 9 4 5 - - 0.0
21/12:30am 1.1 -1.9 0.8 98 0.1 NNE 6 6 3 3 - - 0.0
21/12:00am 1.7 -0.8 1.7 100 0.0 NE 4 6 2 3 - - 0.0
 
Date/Time
EST
Temp
°C
App
Temp
°C
Dew
Point
°C
Rel
Hum
%
Delta-T
°C
Wind Press
QNH
hPa
Press
MSL
hPa
Rain since
9am
mm
Dir  Spd
km/h
Gust
km/h
Spd
kts
Gust
kts
20/11:30pm 1.3 -0.9 1.3 100 0.0 E 2 7 1 4 - - 0.0
20/11:00pm 3.2 1.3 3.0 99 0.1 NNE 2 7 1 4 - - 0.0
20/10:30pm 3.6 1.0 3.1 97 0.2 NNE 6 9 3 5 - - 0.0
20/10:00pm 4.6 2.1 3.6 93 0.4 NNE 6 7 3 4 - - 0.0
20/09:30pm 4.7 2.0 3.7 93 0.4 NNE 7 9 4 5 - - 0.0
20/09:00pm 4.6 1.9 3.6 93 0.4 ENE 7 9 4 5 - - 0.0
20/08:30pm 4.2 1.7 3.5 95 0.3 NE 6 9 3 5 - - 0.0
20/08:00pm 4.6 2.1 3.6 93 0.4 NE 6 7 3 4 - - 0.0
20/07:30pm 5.9 4.3 4.7 92 0.5 NNE 2 6 1 3 - - 0.0
20/07:00pm 6.5 4.0 4.9 89 0.7 NE 7 9 4 5 - - 0.0
20/06:30pm 7.0 4.7 4.7 85 1.0 N 6 9 3 5 - - 0.0
20/06:00pm 8.2 6.6 4.6 78 1.6 S 2 9 1 5 - - 0.0
20/05:30pm 9.8 8.0 3.4 64 2.8 SW 2 9 1 5 - - 0.0
20/05:00pm 10.4 7.7 3.8 63 2.9 SW 7 11 4 6 - - 0.0
20/04:30pm 10.5 7.3 3.2 60 3.2 WSW 9 13 5 7 - - 0.0
20/04:00pm 10.8 6.7 2.1 55 3.7 WSW 13 17 7 9 - - 0.0
20/03:30pm 11.1 7.1 2.8 56 3.6 SW 13 17 7 9 - - 0.0
20/03:00pm 11.2 6.4 2.4 54 3.8 SW 17 22 9 12 - - 0.0
20/02:30pm 11.5 6.8 1.0 48 4.4 WSW 15 22 8 12 - - 0.0
20/02:00pm 11.4 7.2 1.5 50 4.2 WSW 13 22 7 12 - - 0.0
20/01:30pm 11.1 6.5 1.4 51 4.1 SW 15 24 8 13 - - 0.0
20/01:00pm 11.4 7.6 1.8 51 4.1 WSW 11 19 6 10 - - 0.0
20/12:30pm 10.6 7.0 2.7 58 3.4 SW 11 24 6 13 - - 0.0
20/12:00pm 11.4 6.1 1.8 51 4.1 SW 19 24 10 13 - - 0.0
20/11:30am 11.4 9.2 3.2 57 3.6 NW 4 7 2 4 - - 0.0
20/11:00am 9.6 7.7 2.8 62 2.9 NW 2 9 1 5 - - 0.0
20/10:30am 9.2 7.8 3.7 68 2.4 CALM 0 0 0 0 - - 0.0
20/10:00am 6.5 3.8 2.6 76 1.6 ENE 6 7 3 4 - - 0.0
20/09:30am 4.7 2.7 2.5 86 0.9 W 2 6 1 3 - - 0.0
20/09:00am 3.4 1.7 1.9 90 0.6 CALM 0 0 0 0 - - 0.2
20/08:30am 1.8 -1.1 1.5 98 0.1 NE 6 6 3 3 - - 0.2
20/08:00am -0.2 - - - - NE 7 9 4 5 - - 0.0
20/07:30am -0.9 - - - - ENE 6 9 3 5 - - 0.0
20/07:00am -1.4 - - - - NE 2 7 1 4 - - 0.0
20/06:30am -1.9 - - - - N 4 7 2 4 - - 0.0
20/06:00am -1.8 - - - - N 4 7 2 4 - - 0.0
20/05:30am -1.8 - - - - NNE 6 7 3 4 - - 0.0
20/05:00am -1.7 - - - - NNE 6 9 3 5 - - 0.0
20/04:30am -1.5 - - - - N 6 7 3 4 - - 0.0
20/04:00am -1.8 - - - - NNE 7 11 4 6 - - 0.0
20/03:30am -2.3 - - - - NE 4 7 2 4 - - 0.0
20/03:00am -2.9 - - - - CALM 0 0 0 0 - - 0.0
20/02:30am -2.1 - - - - CALM 0 0 0 0 - - 0.0
20/02:00am -1.7 - - - - CALM 0 6 0 3 - - 0.0
20/01:30am -1.6 - - - - NNE 6 7 3 4 - - 0.0
20/01:00am -1.5 - - - - NE 6 9 3 5 - - 0.0
20/12:30am -1.7 - - - - NE 6 7 3 4 - - 0.0
20/12:00am -1.7 - - - - ENE 6 9 3 5 - - 0.0
 
Date/Time
EST
Temp
°C
App
Temp
°C
Dew
Point
°C
Rel
Hum
%
Delta-T
°C
Wind Press
QNH
hPa
Press
MSL
hPa
Rain since
9am
mm
Dir  Spd
km/h
Gust
km/h
Spd
kts
Gust
kts
19/11:30pm -1.1 - - - - ESE 4 7 2 4 - - 0.0
19/11:00pm -0.6 - - - - NE 4 6 2 3 - - 0.0
19/10:30pm -0.6 - - - - N 4 7 2 4 - - 0.0
19/10:00pm -0.1 - - - - CALM 0 0 0 0 - - 0.0
19/09:30pm 0.6 -2.5 0.3 98 0.1 NE 6 7 3 4 - - 0.0
19/09:00pm 0.5 -2.5 0.5 100 0.0 N 6 9 3 5 - - 0.0
19/08:30pm 0.8 -2.4 0.8 100 0.0 NE 7 9 4 5 - - 0.0
19/08:00pm 1.7 -0.1 1.4 98 0.1 CALM 0 0 0 0 - - 0.0
19/07:30pm 2.4 0.7 1.9 96 0.2 CALM 0 0 0 0 - - 0.0
19/07:00pm 3.1 0.6 1.8 91 0.5 NE 4 6 2 3 - - 0.0
19/06:30pm 4.4 2.4 2.4 87 0.8 ENE 2 7 1 4 - - 0.0
19/06:00pm 6.0 3.9 1.8 74 1.7 W 2 6 1 3 - - 0.0
19/05:30pm 6.7 3.1 0.9 66 2.3 WSW 9 15 5 8 - - 0.0
19/05:00pm 7.7 2.5 0.4 60 2.9 W 17 26 9 14 - - 0.0
19/04:30pm 8.2 3.4 0.4 58 3.1 W 15 24 8 13 - - 0.0
19/04:00pm 9.1 3.3 0.1 53 3.6 W 20 28 11 15 - - 0.0
19/03:30pm 9.4 3.2 -0.1 51 3.8 W 22 35 12 19 - - 0.0
19/03:00pm 9.6 4.5 0.8 54 3.6 WSW 17 28 9 15 - - 0.0
19/02:30pm 8.8 3.2 1.5 60 3.0 WSW 20 37 11 20 - - 0.0
19/02:00pm 10.0 4.5 0.4 51 3.9 WSW 19 26 10 14 - - 0.0
19/01:30pm 9.4 3.9 0.8 55 3.5 WSW 19 30 10 16 - - 0.0
19/01:00pm 9.4 3.2 -0.1 51 3.8 W 22 39 12 21 - - 0.0
19/12:30pm 9.1 3.6 0.7 55 3.4 SW 19 30 10 16 - - 0.0
19/12:00pm 8.9 3.3 -0.2 53 3.6 WSW 19 30 10 16 - - 0.0
19/11:30am 8.5 2.6 -0.7 52 3.6 W 20 32 11 17 - - 0.0
19/11:00am 8.6 6.0 1.0 59 3.1 NE 4 7 2 4 - - 0.0
19/10:30am 6.3 3.8 1.6 72 1.9 ESE 4 7 2 4 - - 0.0
19/10:00am 5.0 3.5 3.1 87 0.8 CALM 0 7 0 4 - - 0.0
19/09:30am 3.4 1.7 2.1 91 0.5 CALM 0 0 0 0 - - 0.0
19/09:00am 2.8 1.2 2.3 96 0.2 CALM 0 0 0 0 - - 3.8
19/08:30am 2.4 -0.4 1.9 96 0.2 NE 6 7 3 4 - - 3.8
19/08:00am 1.8 -1.1 1.5 98 0.1 NE 6 7 3 4 - - 3.8
19/07:30am 1.2 -1.7 1.2 100 0.0 NE 6 6 3 3 - - 3.8
19/07:00am 1.4 -0.4 1.1 98 0.1 CALM 0 0 0 0 - - 3.8
19/06:30am 1.2 -1.0 0.9 98 0.1 NE 2 6 1 3 - - 3.8
19/06:00am 1.8 -0.7 1.5 98 0.1 NE 4 6 2 3 - - 3.8
19/05:30am 2.0 -0.8 2.0 100 0.0 NE 6 7 3 4 - - 3.8
19/05:00am 1.8 0.0 1.5 98 0.1 CALM 0 0 0 0 - - 3.8
19/04:30am 2.0 -0.9 1.7 98 0.1 NNE 6 7 3 4 - - 3.8
19/04:00am 2.0 -1.0 1.7 98 0.1 NE 7 9 4 5 - - 3.8
19/03:30am 1.6 -1.9 1.3 98 0.1 NNE 9 11 5 6 - - 3.8
19/03:00am 1.8 -1.7 1.3 96 0.2 NE 9 11 5 6 - - 3.8
19/02:30am 1.6 -1.3 1.3 98 0.1 N 6 9 3 5 - - 3.8
19/02:00am 2.0 -1.0 1.7 98 0.1 NE 7 9 4 5 - - 3.8
19/01:30am 2.2 -1.2 1.9 98 0.1 NE 9 13 5 7 - - 3.8
19/01:00am 2.3 -0.7 2.0 98 0.1 NNE 7 9 4 5 - - 3.8
19/12:30am 2.4 -0.6 1.9 96 0.2 NE 7 11 4 6 - - 3.8
19/12:00am 2.4 -1.0 2.1 98 0.1 NNE 9 11 5 6 - - 3.8
 
Date/Time
EST
Temp
°C
App
Temp
°C
Dew
Point
°C
Rel
Hum
%
Delta-T
°C
Wind Press
QNH
hPa
Press
MSL
hPa
Rain since
9am
mm
Dir  Spd
km/h
Gust
km/h
Spd
kts
Gust
kts
18/11:30pm 2.3 -0.7 2.3 100 0.0 NNE 7 9 4 5 - - 3.8
18/11:00pm 2.4 -0.6 1.9 96 0.2 ENE 7 9 4 5 - - 3.8
18/10:30pm 2.3 -0.7 2.0 98 0.1 N 7 9 4 5 - - 3.8
18/10:00pm 2.3 -1.0 2.3 100 0.0 E 9 11 5 6 - - 3.8
18/09:30pm 2.6 -0.3 2.6 100 0.0 NNE 7 9 4 5 - - 3.8
18/09:00pm 2.6 -0.7 2.3 98 0.1 NE 9 13 5 7 - - 3.8
18/08:30pm 2.6 -0.4 2.3 98 0.1 N 7 11 4 6 - - 3.8
18/08:00pm 2.6 -0.7 2.3 98 0.1 NNE 9 11 5 6 - - 3.8
18/07:30pm 2.9 1.3 2.6 98 0.1 CALM 0 6 0 3 - - 3.8
18/07:00pm 3.1 0.3 2.9 99 0.1 N 7 11 4 6 - - 3.8
18/06:30pm 2.4 -0.6 2.1 98 0.1 E 7 11 4 6 - - 3.8
18/06:00pm 3.3 0.1 2.8 97 0.2 NE 9 13 5 7 - - 3.8
18/05:30pm 3.8 1.9 2.8 93 0.4 S 2 6 1 3 - - 3.8
18/05:00pm 3.7 0.0 2.5 92 0.5 SW 11 19 6 10 - - 3.8
18/04:30pm 3.7 -0.4 2.2 90 0.6 SSW 13 24 7 13 - - 3.0

Other Formats:

Comma delimited format used in spreadsheet applications
http://www.bom.gov.au/fwo/IDT60801/IDT60801.95977.axf

JavaScript Object Notation format (JSON) in row-major order
http://www.bom.gov.au/fwo/IDT60801/IDT60801.95977.json